createdAt,value
2022-08-28T00:01:39.719Z,99259.75
2022-08-28T00:06:18.598Z,99267.72
2022-08-28T00:10:27.077Z,99263.31
2022-08-28T00:15:05.059Z,99256.34
2022-08-28T00:29:37.213Z,99261.78
2022-08-28T00:55:11.831Z,99265.53
2022-08-28T01:04:34.970Z,99266.69
2022-08-28T01:08:59.021Z,99270.97
2022-08-28T01:18:08.096Z,99266.50
2022-08-28T01:23:17.951Z,99272.63
2022-08-28T01:37:20.897Z,99268.22
2022-08-28T01:41:51.132Z,99263.94
2022-08-28T01:51:10.174Z,99270.84
2022-08-28T01:55:40.640Z,99268.59
2022-08-28T02:04:32.510Z,99272.31
2022-08-28T02:08:58.914Z,99273.53
2022-08-28T02:13:19.564Z,99273.00
2022-08-28T02:18:25.157Z,99269.94
2022-08-28T02:22:36.632Z,99264.09
2022-08-28T02:27:11.094Z,99271.41
2022-08-28T02:31:47.846Z,99268.75
2022-08-28T02:36:01.731Z,99274.78
2022-08-28T02:40:18.490Z,99267.63
2022-08-28T02:44:26.558Z,99268.09
2022-08-28T02:48:53.047Z,99265.22
2022-08-28T02:53:06.892Z,99258.88
2022-08-28T03:06:50.234Z,99246.91
2022-08-28T03:11:00.096Z,99251.13
2022-08-28T03:15:11.803Z,99247.44
2022-08-28T03:23:50.526Z,99243.84
2022-08-28T03:28:04.874Z,99238.09
2022-08-28T03:32:11.232Z,99237.56
2022-08-28T03:36:22.683Z,99242.25
2022-08-28T03:40:28.919Z,99251.13
2022-08-28T03:44:35.372Z,99249.38
2022-08-28T03:48:45.967Z,99252.75
2022-08-28T03:53:11.326Z,99248.38
2022-08-28T03:57:22.884Z,99246.97
2022-08-28T04:01:27.192Z,99252.09
2022-08-28T04:05:30.009Z,99250.34
2022-08-28T04:09:47.169Z,99248.38
2022-08-28T04:14:03.297Z,99244.78
2022-08-28T04:22:38.281Z,99244.34
2022-08-28T04:31:37.590Z,99251.00
2022-08-28T04:35:58.443Z,99268.28
2022-08-28T04:40:27.297Z,99254.47
2022-08-28T04:54:24.478Z,99272.88
2022-08-28T05:08:51.292Z,99285.38
2022-08-28T05:18:21.311Z,99292.00
2022-08-28T05:22:51.114Z,99296.16
2022-08-28T05:37:19.434Z,99305.25
2022-08-28T05:42:24.163Z,99303.53
2022-08-28T05:46:49.943Z,99310.94
2022-08-28T05:51:24.990Z,99311.59
2022-08-28T05:55:32.814Z,99307.69
2022-08-28T05:59:34.421Z,99306.00
2022-08-28T06:04:12.877Z,99308.59
2022-08-28T06:08:38.332Z,99312.53
2022-08-28T06:13:12.732Z,99324.25
2022-08-28T06:17:24.066Z,99317.31
2022-08-28T06:21:47.776Z,99321.03
2022-08-28T06:26:01.584Z,99326.41
2022-08-28T06:35:26.890Z,99333.47
2022-08-28T06:43:59.714Z,99343.44
2022-08-28T06:48:34.134Z,99347.72
2022-08-28T06:57:11.994Z,99353.91
2022-08-28T07:01:38.068Z,99359.53
2022-08-28T07:05:59.876Z,99349.13
2022-08-28T07:15:33.553Z,99351.69
2022-08-28T07:19:36.507Z,99362.97
2022-08-28T07:23:47.904Z,99362.81
2022-08-28T07:28:03.718Z,99369.50
2022-08-28T07:32:07.135Z,99365.25
2022-08-28T07:36:34.207Z,99362.75
2022-08-28T07:40:49.631Z,99369.94
2022-08-28T07:45:04.871Z,99376.59
2022-08-28T07:49:08.494Z,99380.88
2022-08-28T07:57:41.834Z,99388.53
2022-08-28T08:01:50.335Z,99382.66
2022-08-28T08:10:42.453Z,99383.06
2022-08-28T08:14:46.090Z,99382.13
2022-08-28T08:18:53.814Z,99386.97
2022-08-28T08:22:55.474Z,99395.69
2022-08-28T08:27:00.950Z,99395.59
2022-08-28T08:31:12.922Z,99402.22
2022-08-28T08:35:14.316Z,99404.56
2022-08-28T08:39:16.093Z,99409.63
2022-08-28T08:43:21.303Z,99409.97
2022-08-28T08:47:49.481Z,99415.50
2022-08-28T08:52:04.505Z,99414.22
2022-08-28T08:56:06.498Z,99416.06
2022-08-28T09:00:15.570Z,99422.41
2022-08-28T09:04:46.338Z,99426.84
2022-08-28T09:08:52.586Z,99423.31
2022-08-28T09:12:54.539Z,99424.00
2022-08-28T09:16:56.873Z,99436.00
2022-08-28T09:20:59.234Z,99431.06
2022-08-28T09:25:00.633Z,99442.81
2022-08-28T09:29:06.829Z,99437.50
2022-08-28T09:33:09.006Z,99446.16
2022-08-28T09:37:25.983Z,99447.78
2022-08-28T09:41:46.281Z,99446.00
2022-08-28T09:45:58.452Z,99447.50
2022-08-28T09:50:41.651Z,99454.81
2022-08-28T09:54:45.305Z,99442.25
2022-08-28T09:58:51.211Z,99441.16
2022-08-28T10:03:18.198Z,99439.50
2022-08-28T10:07:26.806Z,99429.50
2022-08-28T10:12:06.941Z,99445.41
2022-08-28T10:16:17.100Z,99430.09
2022-08-28T10:20:40.450Z,99427.53
2022-08-28T10:25:07.495Z,99430.19
2022-08-28T10:29:12.413Z,99426.09
2022-08-28T10:33:44.325Z,99432.81
2022-08-28T10:37:45.684Z,99426.19
2022-08-28T10:41:51.096Z,99432.50
2022-08-28T10:45:53.204Z,99417.16
2022-08-28T10:50:01.808Z,99421.84
2022-08-28T10:54:11.137Z,99419.63
2022-08-28T10:58:24.116Z,99421.16
2022-08-28T11:02:30.615Z,99418.72
2022-08-28T11:06:38.793Z,99417.03
2022-08-28T11:10:46.894Z,99424.28
2022-08-28T11:14:51.156Z,99427.25
2022-08-28T11:19:17.392Z,99422.28
2022-08-28T11:23:32.261Z,99411.47
2022-08-28T11:27:38.969Z,99405.63
2022-08-28T11:31:44.090Z,99401.34
2022-08-28T11:35:50.897Z,99409.66
2022-08-28T11:40:29.351Z,99410.13
2022-08-28T11:45:08.247Z,99407.72
2022-08-28T11:49:32.435Z,99390.75
2022-08-28T11:53:57.119Z,99398.22
2022-08-28T12:02:39.346Z,99403.06
2022-08-28T12:07:11.568Z,99393.56
2022-08-28T12:11:39.286Z,99391.28
2022-08-28T12:15:42.966Z,99379.66
2022-08-28T12:19:56.417Z,99387.19
2022-08-28T12:24:19.023Z,99391.84
2022-08-28T12:28:39.509Z,99386.28
2022-08-28T12:32:51.796Z,99380.78
2022-08-28T12:37:02.024Z,99384.19
2022-08-28T12:41:03.952Z,99380.47
2022-08-28T12:45:10.345Z,99376.00
2022-08-28T12:49:37.073Z,99375.41
2022-08-28T12:53:40.409Z,99368.13
2022-08-28T12:57:45.871Z,99367.72
2022-08-28T13:01:47.480Z,99369.47
2022-08-28T13:05:58.741Z,99358.69
2022-08-28T13:10:06.206Z,99361.47
2022-08-28T13:14:08.945Z,99348.44
2022-08-28T13:18:10.848Z,99350.28
2022-08-28T13:22:39.073Z,99349.44
2022-08-28T13:26:40.859Z,99343.06
2022-08-28T13:30:42.311Z,99340.91
2022-08-28T13:35:22.123Z,99337.97
2022-08-28T13:39:24.526Z,99344.00
2022-08-28T13:43:29.364Z,99331.19
2022-08-28T13:47:31.357Z,99333.03
2022-08-28T13:51:33.412Z,99329.38
2022-08-28T13:55:40.954Z,99323.25
2022-08-28T13:59:42.731Z,99324.81
2022-08-28T14:03:44.799Z,99328.31
2022-08-28T14:07:46.241Z,99327.84
2022-08-28T14:11:48.206Z,99325.38
2022-08-28T14:15:50.635Z,99322.34
2022-08-28T14:19:52.069Z,99314.09
2022-08-28T14:23:53.703Z,99318.31
2022-08-28T14:27:55.923Z,99313.16
2022-08-28T14:31:59.929Z,99306.09
2022-08-28T14:36:01.950Z,99310.84
2022-08-28T14:40:05.387Z,99303.50
2022-08-28T14:44:09.071Z,99305.47
2022-08-28T14:48:10.547Z,99307.28
2022-08-28T14:52:12.043Z,99303.88
2022-08-28T14:56:13.639Z,99303.03
2022-08-28T15:00:16.344Z,99287.47
2022-08-28T15:04:22.760Z,99290.56
2022-08-28T15:08:24.286Z,99288.16
2022-08-28T15:12:25.780Z,99287.66
2022-08-28T15:16:30.674Z,99292.81
2022-08-28T15:20:40.144Z,99292.16
2022-08-28T15:24:41.569Z,99289.16
2022-08-28T15:28:43.358Z,99296.19
2022-08-28T15:32:46.128Z,99294.75
2022-08-28T15:36:54.833Z,99295.25
2022-08-28T15:41:15.957Z,99295.81
2022-08-28T15:45:18.212Z,99286.31
2022-08-28T15:49:20.733Z,99285.97
2022-08-28T15:53:25.421Z,99290.28
2022-08-28T15:57:26.791Z,99287.81
2022-08-28T16:01:28.349Z,99289.16
2022-08-28T16:05:34.925Z,99294.69
2022-08-28T16:09:40.959Z,99285.63
2022-08-28T16:13:42.490Z,99277.63
2022-08-28T16:17:43.942Z,99280.72
2022-08-28T16:21:45.577Z,99278.38
2022-08-28T16:25:47.430Z,99279.94
2022-08-28T16:29:52.858Z,99282.97
2022-08-28T16:33:55.047Z,99283.84
2022-08-28T16:37:57.435Z,99281.97
2022-08-28T16:41:59.865Z,99289.13
2022-08-28T16:46:01.538Z,99282.63
2022-08-28T16:50:08.286Z,99284.34
2022-08-28T16:54:10.608Z,99287.00
2022-08-28T16:58:16.748Z,99295.09
2022-08-28T17:02:22.924Z,99285.38
2022-08-28T17:06:30.478Z,99282.09
2022-08-28T17:10:32.178Z,99279.50
2022-08-28T17:14:34.041Z,99269.56
2022-08-28T17:18:36.665Z,99277.31
2022-08-28T17:22:39.136Z,99284.41
2022-08-28T17:26:42.018Z,99275.31
2022-08-28T17:30:43.757Z,99283.06
2022-08-28T17:34:45.369Z,99283.41
2022-08-28T17:38:47.437Z,99288.47
2022-08-28T17:42:49.265Z,99289.25
2022-08-28T17:46:51.858Z,99292.63
2022-08-28T17:50:53.434Z,99302.09
2022-08-28T17:54:55.895Z,99299.19
2022-08-28T17:58:57.835Z,99300.78
2022-08-28T18:03:00.009Z,99294.19
2022-08-28T18:07:01.734Z,99301.25
2022-08-28T18:11:04.421Z,99298.75
2022-08-28T18:15:08.553Z,99303.72
2022-08-28T18:19:11.125Z,99304.38
2022-08-28T18:23:12.850Z,99317.28
2022-08-28T18:27:16.856Z,99325.69
2022-08-28T18:31:18.925Z,99326.09
2022-08-28T18:35:30.295Z,99332.63
2022-08-28T18:39:35.938Z,99335.81
2022-08-28T18:43:37.609Z,99340.66
2022-08-28T18:47:39.293Z,99350.75
2022-08-28T18:51:43.357Z,99341.66
2022-08-28T18:55:45.876Z,99346.22
2022-08-28T18:59:48.274Z,99353.88
2022-08-28T19:03:50.342Z,99366.19
2022-08-28T19:07:51.996Z,99374.09
2022-08-28T19:11:54.082Z,99386.69
2022-08-28T19:15:55.721Z,99388.53
2022-08-28T19:19:57.460Z,99396.03
2022-08-28T19:23:58.867Z,99399.84
2022-08-28T19:28:01.638Z,99406.50
2022-08-28T19:32:03.848Z,99403.09
2022-08-28T19:36:05.873Z,99402.94
2022-08-28T19:40:07.803Z,99408.06
2022-08-28T19:44:10.577Z,99410.94
2022-08-28T19:48:12.306Z,99410.50
2022-08-28T19:52:13.961Z,99412.75
2022-08-28T19:56:15.494Z,99423.72
2022-08-28T20:00:19.462Z,99430.28
2022-08-28T20:04:20.999Z,99437.69
2022-08-28T20:08:23.921Z,99439.19
2022-08-28T20:12:25.318Z,99440.59
2022-08-28T20:16:28.182Z,99447.94
2022-08-28T20:20:30.166Z,99452.75
2022-08-28T20:24:31.614Z,99450.34
2022-08-28T20:28:33.422Z,99453.19
2022-08-28T20:32:35.785Z,99453.34
2022-08-28T20:36:42.153Z,99463.06
2022-08-28T20:40:43.635Z,99465.94
2022-08-28T20:44:45.053Z,99461.72
2022-08-28T20:48:46.730Z,99471.41
2022-08-28T20:52:48.180Z,99472.41
2022-08-28T20:56:51.697Z,99473.41
2022-08-28T21:00:55.052Z,99467.59
2022-08-28T21:05:01.980Z,99477.31
2022-08-28T21:09:04.604Z,99475.75
2022-08-28T21:13:07.340Z,99476.91
2022-08-28T21:17:09.685Z,99476.19
2022-08-28T21:21:12.232Z,99476.31
2022-08-28T21:25:17.722Z,99478.31
2022-08-28T21:29:21.097Z,99483.78
2022-08-28T21:33:23.455Z,99484.88
2022-08-28T21:37:24.937Z,99492.19
2022-08-28T21:41:26.530Z,99489.75
2022-08-28T21:45:30.643Z,99489.00
2022-08-28T21:49:32.382Z,99490.97
2022-08-28T21:53:37.573Z,99494.59
2022-08-28T21:57:39.763Z,99498.22
2022-08-28T22:01:41.521Z,99501.91
2022-08-28T22:05:45.486Z,99502.06
2022-08-28T22:09:47.197Z,99505.81
2022-08-28T22:13:50.072Z,99508.56
2022-08-28T22:17:53.309Z,99512.31
2022-08-28T22:22:13.677Z,99509.75
2022-08-28T22:26:18.908Z,99509.13
2022-08-28T22:30:21.724Z,99513.59
2022-08-28T22:34:23.162Z,99507.66
2022-08-28T22:38:25.869Z,99497.28
2022-08-28T22:42:27.553Z,99497.47
2022-08-28T22:46:29.773Z,99501.13
2022-08-28T22:50:31.734Z,99508.38
2022-08-28T22:54:33.490Z,99511.91
2022-08-28T22:58:35.159Z,99506.00
2022-08-28T23:02:38.045Z,99507.03
2022-08-28T23:06:40.359Z,99502.81
2022-08-28T23:10:58.432Z,99505.63
2022-08-28T23:15:02.233Z,99506.63
2022-08-28T23:19:09.196Z,99501.53
2022-08-28T23:23:11.366Z,99497.38
2022-08-28T23:27:34.615Z,99496.72
2022-08-28T23:31:35.331Z,99497.00
2022-08-28T23:35:37.344Z,99488.38
2022-08-28T23:39:38.805Z,99488.50
2022-08-28T23:43:40.262Z,99489.13
2022-08-28T23:47:43.795Z,99489.47
2022-08-28T23:51:46.206Z,99487.06
2022-08-28T23:55:49.777Z,99485.88
2022-08-28T23:59:51.643Z,99486.50
